Terminal Aerodrome Forecast
Issued by NWS

Home | Current Version | Previous Version | Text Only | Print | Product List | Glossary On
Versions: 1 2 3 4 5 6 7 8 9 10 11 12 13 14 15 16 17
388
FTUS42 KTAE 241120
TAFECP
TAF
KECP 241120Z 2412/2512 29005KT P6SM FEW250
     FM250100 19003KT P6SM SKC=

USA.gov is the U.S. government's official web portal to all federal, state and local government web resources and services.